sensor_id;sensor_type;location;lat;lon;timestamp;P1;durP1;ratioP1;P2;durP2;ratioP2
3726;SDS011;1879;45.876;12.300;2022-12-11T00:01:15;6.53;;;5.93;;
3726;SDS011;1879;45.876;12.300;2022-12-11T00:03:44;7.80;;;7.17;;
3726;SDS011;1879;45.876;12.300;2022-12-11T00:06:12;6.40;;;5.80;;
3726;SDS011;1879;45.876;12.300;2022-12-11T00:08:41;6.37;;;5.80;;
3726;SDS011;1879;45.876;12.300;2022-12-11T00:11:10;6.47;;;5.90;;
3726;SDS011;1879;45.876;12.300;2022-12-11T00:13:38;6.60;;;6.00;;
3726;SDS011;1879;45.876;12.300;2022-12-11T00:16:06;7.17;;;6.53;;
3726;SDS011;1879;45.876;12.300;2022-12-11T00:18:34;6.83;;;6.23;;
3726;SDS011;1879;45.876;12.300;2022-12-11T00:21:01;9.37;;;8.40;;
3726;SDS011;1879;45.876;12.300;2022-12-11T00:23:30;8.30;;;6.70;;
3726;SDS011;1879;45.876;12.300;2022-12-11T00:25:59;7.47;;;6.87;;
3726;SDS011;1879;45.876;12.300;2022-12-11T00:28:26;8.43;;;7.33;;
3726;SDS011;1879;45.876;12.300;2022-12-11T00:30:53;8.83;;;7.33;;
3726;SDS011;1879;45.876;12.300;2022-12-11T00:33:21;9.37;;;8.33;;
3726;SDS011;1879;45.876;12.300;2022-12-11T00:35:48;8.03;;;7.30;;
3726;SDS011;1879;45.876;12.300;2022-12-11T00:38:15;7.90;;;7.20;;
3726;SDS011;1879;45.876;12.300;2022-12-11T00:40:44;8.40;;;7.70;;
3726;SDS011;1879;45.876;12.300;2022-12-11T00:43:11;8.70;;;7.90;;
3726;SDS011;1879;45.876;12.300;2022-12-11T00:45:39;8.50;;;7.80;;
3726;SDS011;1879;45.876;12.300;2022-12-11T00:48:07;8.67;;;7.83;;
3726;SDS011;1879;45.876;12.300;2022-12-11T00:50:35;8.93;;;8.03;;
3726;SDS011;1879;45.876;12.300;2022-12-11T00:53:03;9.70;;;8.80;;
3726;SDS011;1879;45.876;12.300;2022-12-11T00:55:32;9.93;;;8.40;;
3726;SDS011;1879;45.876;12.300;2022-12-11T00:58:02;9.73;;;8.83;;
3726;SDS011;1879;45.876;12.300;2022-12-11T01:00:29;9.90;;;8.93;;
3726;SDS011;1879;45.876;12.300;2022-12-11T01:02:56;9.53;;;8.63;;
3726;SDS011;1879;45.876;12.300;2022-12-11T01:05:23;9.33;;;8.43;;
3726;SDS011;1879;45.876;12.300;2022-12-11T01:07:51;10.47;;;9.47;;
3726;SDS011;1879;45.876;12.300;2022-12-11T01:10:18;10.37;;;9.20;;
3726;SDS011;1879;45.876;12.300;2022-12-11T01:12:52;10.30;;;9.40;;
3726;SDS011;1879;45.876;12.300;2022-12-11T01:15:20;10.23;;;9.13;;
3726;SDS011;1879;45.876;12.300;2022-12-11T01:17:48;11.50;;;10.40;;
3726;SDS011;1879;45.876;12.300;2022-12-11T01:20:16;11.90;;;10.70;;
3726;SDS011;1879;45.876;12.300;2022-12-11T01:22:44;10.97;;;9.87;;
3726;SDS011;1879;45.876;12.300;2022-12-11T01:25:13;10.90;;;9.10;;
3726;SDS011;1879;45.876;12.300;2022-12-11T01:27:40;10.60;;;9.60;;
3726;SDS011;1879;45.876;12.300;2022-12-11T01:30:07;9.20;;;8.30;;
3726;SDS011;1879;45.876;12.300;2022-12-11T01:32:35;8.90;;;8.10;;
3726;SDS011;1879;45.876;12.300;2022-12-11T01:35:02;8.47;;;7.67;;
3726;SDS011;1879;45.876;12.300;2022-12-11T01:37:30;8.67;;;7.83;;
3726;SDS011;1879;45.876;12.300;2022-12-11T01:39:57;10.80;;;9.07;;
3726;SDS011;1879;45.876;12.300;2022-12-11T01:42:25;8.83;;;8.03;;
3726;SDS011;1879;45.876;12.300;2022-12-11T01:47:54;8.43;;;7.63;;
3726;SDS011;1879;45.876;12.300;2022-12-11T01:50:24;8.90;;;8.10;;
3726;SDS011;1879;45.876;12.300;2022-12-11T01:52:51;11.30;;;10.27;;
3726;SDS011;1879;45.876;12.300;2022-12-11T01:55:18;14.33;;;10.97;;
3726;SDS011;1879;45.876;12.300;2022-12-11T01:57:47;13.20;;;11.87;;
3726;SDS011;1879;45.876;12.300;2022-12-11T02:00:17;12.90;;;11.70;;
3726;SDS011;1879;45.876;12.300;2022-12-11T02:02:45;15.87;;;14.10;;
3726;SDS011;1879;45.876;12.300;2022-12-11T02:05:12;15.70;;;14.10;;
3726;SDS011;1879;45.876;12.300;2022-12-11T02:07:40;13.80;;;12.50;;
3726;SDS011;1879;45.876;12.300;2022-12-11T02:10:11;14.57;;;13.17;;
3726;SDS011;1879;45.876;12.300;2022-12-11T02:12:40;16.20;;;14.10;;
3726;SDS011;1879;45.876;12.300;2022-12-11T02:15:18;14.90;;;13.50;;
3726;SDS011;1879;45.876;12.300;2022-12-11T02:17:52;15.00;;;13.47;;
3726;SDS011;1879;45.876;12.300;2022-12-11T02:20:26;13.90;;;12.60;;
3726;SDS011;1879;45.876;12.300;2022-12-11T02:23:05;14.27;;;12.40;;
3726;SDS011;1879;45.876;12.300;2022-12-11T02:25:51;15.00;;;13.50;;
3726;SDS011;1879;45.876;12.300;2022-12-11T02:28:30;13.73;;;12.40;;
3726;SDS011;1879;45.876;12.300;2022-12-11T02:31:00;14.90;;;13.40;;
3726;SDS011;1879;45.876;12.300;2022-12-11T02:33:33;14.30;;;12.90;;
3726;SDS011;1879;45.876;12.300;2022-12-11T02:36:07;13.30;;;12.07;;
3726;SDS011;1879;45.876;12.300;2022-12-11T02:38:35;14.27;;;12.93;;
3726;SDS011;1879;45.876;12.300;2022-12-11T02:41:06;13.03;;;11.60;;
3726;SDS011;1879;45.876;12.300;2022-12-11T02:43:37;13.30;;;12.10;;
3726;SDS011;1879;45.876;12.300;2022-12-11T02:46:06;14.83;;;12.20;;
3726;SDS011;1879;45.876;12.300;2022-12-11T02:48:34;13.00;;;11.70;;
3726;SDS011;1879;45.876;12.300;2022-12-11T02:51:02;12.77;;;11.57;;
3726;SDS011;1879;45.876;12.300;2022-12-11T02:53:34;16.10;;;12.90;;
3726;SDS011;1879;45.876;12.300;2022-12-11T02:56:05;13.23;;;11.90;;
3726;SDS011;1879;45.876;12.300;2022-12-11T02:58:38;15.10;;;13.20;;
3726;SDS011;1879;45.876;12.300;2022-12-11T03:01:10;10.90;;;9.90;;
3726;SDS011;1879;45.876;12.300;2022-12-11T03:03:37;12.03;;;10.73;;
3726;SDS011;1879;45.876;12.300;2022-12-11T03:06:04;11.53;;;10.47;;
3726;SDS011;1879;45.876;12.300;2022-12-11T03:08:31;6.70;;;6.00;;
3726;SDS011;1879;45.876;12.300;2022-12-11T03:10:58;8.37;;;6.57;;
3726;SDS011;1879;45.876;12.300;2022-12-11T03:13:25;8.77;;;6.80;;
3726;SDS011;1879;45.876;12.300;2022-12-11T03:15:57;8.50;;;7.60;;
3726;SDS011;1879;45.876;12.300;2022-12-11T03:18:33;8.07;;;7.27;;
3726;SDS011;1879;45.876;12.300;2022-12-11T03:21:06;8.50;;;7.80;;
3726;SDS011;1879;45.876;12.300;2022-12-11T03:23:41;6.50;;;5.90;;
3726;SDS011;1879;45.876;12.300;2022-12-11T03:26:15;6.43;;;5.83;;
3726;SDS011;1879;45.876;12.300;2022-12-11T03:28:44;5.80;;;5.30;;
3726;SDS011;1879;45.876;12.300;2022-12-11T03:31:17;6.33;;;5.70;;
3726;SDS011;1879;45.876;12.300;2022-12-11T03:33:52;6.17;;;5.57;;
3726;SDS011;1879;45.876;12.300;2022-12-11T03:36:22;6.53;;;5.80;;
3726;SDS011;1879;45.876;12.300;2022-12-11T03:38:56;4.93;;;4.43;;
3726;SDS011;1879;45.876;12.300;2022-12-11T03:41:26;4.93;;;4.53;;
3726;SDS011;1879;45.876;12.300;2022-12-11T03:43:56;5.63;;;5.03;;
3726;SDS011;1879;45.876;12.300;2022-12-11T03:46:26;5.73;;;4.90;;
3726;SDS011;1879;45.876;12.300;2022-12-11T03:48:58;7.20;;;6.50;;
3726;SDS011;1879;45.876;12.300;2022-12-11T03:51:29;6.57;;;5.97;;
3726;SDS011;1879;45.876;12.300;2022-12-11T03:53:59;6.67;;;6.07;;
3726;SDS011;1879;45.876;12.300;2022-12-11T03:56:27;6.37;;;5.87;;
3726;SDS011;1879;45.876;12.300;2022-12-11T03:58:57;5.53;;;4.93;;
3726;SDS011;1879;45.876;12.300;2022-12-11T04:01:25;5.37;;;4.87;;
3726;SDS011;1879;45.876;12.300;2022-12-11T04:03:52;4.50;;;3.80;;
3726;SDS011;1879;45.876;12.300;2022-12-11T04:06:19;5.70;;;5.20;;
3726;SDS011;1879;45.876;12.300;2022-12-11T04:08:46;5.30;;;4.47;;
3726;SDS011;1879;45.876;12.300;2022-12-11T04:11:13;4.60;;;4.20;;
3726;SDS011;1879;45.876;12.300;2022-12-11T04:13:57;5.77;;;4.93;;
3726;SDS011;1879;45.876;12.300;2022-12-11T04:16:43;5.13;;;4.63;;
3726;SDS011;1879;45.876;12.300;2022-12-11T04:19:10;5.23;;;4.83;;
3726;SDS011;1879;45.876;12.300;2022-12-11T04:21:54;6.90;;;5.43;;
3726;SDS011;1879;45.876;12.300;2022-12-11T04:24:50;5.00;;;4.50;;
3726;SDS011;1879;45.876;12.300;2022-12-11T04:27:17;5.20;;;4.43;;
3726;SDS011;1879;45.876;12.300;2022-12-11T04:29:58;4.70;;;4.30;;
3726;SDS011;1879;45.876;12.300;2022-12-11T04:32:26;4.03;;;3.73;;
3726;SDS011;1879;45.876;12.300;2022-12-11T04:34:53;4.60;;;4.20;;
3726;SDS011;1879;45.876;12.300;2022-12-11T04:37:20;3.33;;;3.03;;
3726;SDS011;1879;45.876;12.300;2022-12-11T04:39:47;3.00;;;2.70;;
3726;SDS011;1879;45.876;12.300;2022-12-11T04:42:14;2.57;;;2.37;;
3726;SDS011;1879;45.876;12.300;2022-12-11T04:44:41;4.20;;;1.90;;
3726;SDS011;1879;45.876;12.300;2022-12-11T04:47:08;2.07;;;1.90;;
3726;SDS011;1879;45.876;12.300;2022-12-11T04:49:37;1.97;;;1.80;;
3726;SDS011;1879;45.876;12.300;2022-12-11T04:52:03;2.00;;;1.90;;
3726;SDS011;1879;45.876;12.300;2022-12-11T04:54:30;1.70;;;1.60;;
3726;SDS011;1879;45.876;12.300;2022-12-11T04:56:58;1.93;;;1.83;;
3726;SDS011;1879;45.876;12.300;2022-12-11T04:59:25;1.80;;;1.70;;
3726;SDS011;1879;45.876;12.300;2022-12-11T05:01:52;1.57;;;1.47;;
3726;SDS011;1879;45.876;12.300;2022-12-11T05:04:19;1.97;;;1.87;;
3726;SDS011;1879;45.876;12.300;2022-12-11T05:06:49;1.90;;;1.80;;
3726;SDS011;1879;45.876;12.300;2022-12-11T05:09:16;1.70;;;1.60;;
3726;SDS011;1879;45.876;12.300;2022-12-11T05:11:43;1.60;;;1.50;;
3726;SDS011;1879;45.876;12.300;2022-12-11T05:14:10;1.60;;;1.50;;
3726;SDS011;1879;45.876;12.300;2022-12-11T05:16:37;1.53;;;1.43;;
3726;SDS011;1879;45.876;12.300;2022-12-11T05:19:04;2.43;;;1.60;;
3726;SDS011;1879;45.876;12.300;2022-12-11T05:21:31;1.50;;;1.40;;
3726;SDS011;1879;45.876;12.300;2022-12-11T05:23:59;1.70;;;1.50;;
3726;SDS011;1879;45.876;12.300;2022-12-11T05:26:26;1.60;;;1.50;;
3726;SDS011;1879;45.876;12.300;2022-12-11T05:28:54;1.57;;;1.47;;
3726;SDS011;1879;45.876;12.300;2022-12-11T05:31:22;1.50;;;1.40;;
3726;SDS011;1879;45.876;12.300;2022-12-11T05:33:50;1.73;;;1.63;;
3726;SDS011;1879;45.876;12.300;2022-12-11T05:36:18;3.23;;;2.00;;
3726;SDS011;1879;45.876;12.300;2022-12-11T05:38:47;2.20;;;1.90;;
3726;SDS011;1879;45.876;12.300;2022-12-11T05:41:17;2.23;;;2.10;;
3726;SDS011;1879;45.876;12.300;2022-12-11T05:43:45;1.87;;;1.73;;
3726;SDS011;1879;45.876;12.300;2022-12-11T05:46:13;1.80;;;1.70;;
3726;SDS011;1879;45.876;12.300;2022-12-11T05:48:42;1.97;;;1.77;;
3726;SDS011;1879;45.876;12.300;2022-12-11T05:51:10;1.83;;;1.73;;
3726;SDS011;1879;45.876;12.300;2022-12-11T05:53:38;2.00;;;1.90;;
3726;SDS011;1879;45.876;12.300;2022-12-11T05:56:10;1.80;;;1.70;;
3726;SDS011;1879;45.876;12.300;2022-12-11T05:58:40;1.90;;;1.80;;
3726;SDS011;1879;45.876;12.300;2022-12-11T06:01:08;1.80;;;1.67;;
3726;SDS011;1879;45.876;12.300;2022-12-11T06:03:36;2.60;;;1.90;;
3726;SDS011;1879;45.876;12.300;2022-12-11T06:06:04;1.83;;;1.73;;
3726;SDS011;1879;45.876;12.300;2022-12-11T06:08:32;2.03;;;1.83;;
3726;SDS011;1879;45.876;12.300;2022-12-11T06:10:59;3.10;;;1.70;;
3726;SDS011;1879;45.876;12.300;2022-12-11T06:13:28;2.27;;;1.70;;
3726;SDS011;1879;45.876;12.300;2022-12-11T06:15:58;1.80;;;1.70;;
3726;SDS011;1879;45.876;12.300;2022-12-11T06:18:26;2.40;;;2.20;;
3726;SDS011;1879;45.876;12.300;2022-12-11T06:20:53;2.20;;;2.03;;
3726;SDS011;1879;45.876;12.300;2022-12-11T06:23:20;2.37;;;2.17;;
3726;SDS011;1879;45.876;12.300;2022-12-11T06:25:47;2.50;;;2.30;;
3726;SDS011;1879;45.876;12.300;2022-12-11T06:28:14;2.90;;;2.17;;
3726;SDS011;1879;45.876;12.300;2022-12-11T06:30:41;2.40;;;2.20;;
3726;SDS011;1879;45.876;12.300;2022-12-11T06:33:10;2.60;;;2.17;;
3726;SDS011;1879;45.876;12.300;2022-12-11T06:35:37;2.33;;;1.90;;
3726;SDS011;1879;45.876;12.300;2022-12-11T06:38:04;2.43;;;2.23;;
3726;SDS011;1879;45.876;12.300;2022-12-11T06:40:31;5.53;;;5.03;;
3726;SDS011;1879;45.876;12.300;2022-12-11T06:42:58;4.00;;;3.70;;
3726;SDS011;1879;45.876;12.300;2022-12-11T06:45:25;3.50;;;3.20;;
3726;SDS011;1879;45.876;12.300;2022-12-11T06:47:52;3.03;;;2.80;;
3726;SDS011;1879;45.876;12.300;2022-12-11T06:50:20;2.50;;;2.30;;
3726;SDS011;1879;45.876;12.300;2022-12-11T06:52:49;2.97;;;2.77;;
3726;SDS011;1879;45.876;12.300;2022-12-11T06:55:16;2.80;;;2.60;;
3726;SDS011;1879;45.876;12.300;2022-12-11T06:57:43;3.53;;;3.17;;
3726;SDS011;1879;45.876;12.300;2022-12-11T07:00:13;5.50;;;5.00;;
3726;SDS011;1879;45.876;12.300;2022-12-11T07:02:40;4.17;;;3.77;;
3726;SDS011;1879;45.876;12.300;2022-12-11T07:05:07;3.87;;;3.57;;
3726;SDS011;1879;45.876;12.300;2022-12-11T07:07:36;2.77;;;2.57;;
3726;SDS011;1879;45.876;12.300;2022-12-11T07:10:03;5.03;;;4.63;;
3726;SDS011;1879;45.876;12.300;2022-12-11T07:12:30;4.27;;;3.97;;
3726;SDS011;1879;45.876;12.300;2022-12-11T07:14:57;3.50;;;3.20;;
3726;SDS011;1879;45.876;12.300;2022-12-11T07:17:27;3.50;;;3.20;;
3726;SDS011;1879;45.876;12.300;2022-12-11T07:19:55;3.40;;;3.20;;
3726;SDS011;1879;45.876;12.300;2022-12-11T07:22:22;3.10;;;2.90;;
3726;SDS011;1879;45.876;12.300;2022-12-11T07:24:50;3.20;;;2.90;;
3726;SDS011;1879;45.876;12.300;2022-12-11T07:27:20;3.60;;;3.30;;
3726;SDS011;1879;45.876;12.300;2022-12-11T07:29:47;3.27;;;2.97;;
3726;SDS011;1879;45.876;12.300;2022-12-11T07:32:15;6.20;;;2.90;;
3726;SDS011;1879;45.876;12.300;2022-12-11T07:34:42;3.70;;;3.40;;
3726;SDS011;1879;45.876;12.300;2022-12-11T07:37:09;2.80;;;2.60;;
3726;SDS011;1879;45.876;12.300;2022-12-11T07:39:36;4.40;;;4.00;;
3726;SDS011;1879;45.876;12.300;2022-12-11T07:42:04;3.33;;;3.03;;
3726;SDS011;1879;45.876;12.300;2022-12-11T07:44:31;2.87;;;2.50;;
3726;SDS011;1879;45.876;12.300;2022-12-11T07:46:58;3.60;;;3.30;;
3726;SDS011;1879;45.876;12.300;2022-12-11T07:49:25;3.60;;;3.30;;
3726;SDS011;1879;45.876;12.300;2022-12-11T07:51:52;3.97;;;3.47;;
3726;SDS011;1879;45.876;12.300;2022-12-11T07:54:19;2.70;;;2.50;;
3726;SDS011;1879;45.876;12.300;2022-12-11T07:56:46;2.57;;;2.37;;
3726;SDS011;1879;45.876;12.300;2022-12-11T07:59:15;2.60;;;2.37;;
3726;SDS011;1879;45.876;12.300;2022-12-11T08:01:42;5.30;;;4.80;;
3726;SDS011;1879;45.876;12.300;2022-12-11T08:04:10;6.30;;;5.60;;
3726;SDS011;1879;45.876;12.300;2022-12-11T08:06:39;3.50;;;3.20;;
3726;SDS011;1879;45.876;12.300;2022-12-11T08:09:07;2.90;;;2.60;;
3726;SDS011;1879;45.876;12.300;2022-12-11T08:11:36;2.53;;;2.33;;
3726;SDS011;1879;45.876;12.300;2022-12-11T08:14:03;2.57;;;2.37;;
3726;SDS011;1879;45.876;12.300;2022-12-11T08:16:34;3.20;;;3.00;;
3726;SDS011;1879;45.876;12.300;2022-12-11T08:19:02;3.67;;;3.37;;
3726;SDS011;1879;45.876;12.300;2022-12-11T08:21:29;4.33;;;4.03;;
3726;SDS011;1879;45.876;12.300;2022-12-11T08:23:56;8.17;;;7.47;;
3726;SDS011;1879;45.876;12.300;2022-12-11T08:26:24;8.40;;;7.53;;
3726;SDS011;1879;45.876;12.300;2022-12-11T08:28:52;5.07;;;4.67;;
3726;SDS011;1879;45.876;12.300;2022-12-11T08:31:20;4.80;;;4.30;;
3726;SDS011;1879;45.876;12.300;2022-12-11T08:33:49;4.33;;;4.00;;
3726;SDS011;1879;45.876;12.300;2022-12-11T08:36:17;4.83;;;4.30;;
3726;SDS011;1879;45.876;12.300;2022-12-11T08:38:47;5.10;;;4.37;;
3726;SDS011;1879;45.876;12.300;2022-12-11T08:41:14;4.47;;;4.07;;
3726;SDS011;1879;45.876;12.300;2022-12-11T08:43:43;4.80;;;4.30;;
3726;SDS011;1879;45.876;12.300;2022-12-11T08:46:10;4.53;;;3.97;;
3726;SDS011;1879;45.876;12.300;2022-12-11T08:48:38;4.60;;;4.20;;
3726;SDS011;1879;45.876;12.300;2022-12-11T08:51:09;4.37;;;3.90;;
3726;SDS011;1879;45.876;12.300;2022-12-11T08:53:38;4.10;;;3.70;;
3726;SDS011;1879;45.876;12.300;2022-12-11T08:56:06;4.80;;;4.40;;
3726;SDS011;1879;45.876;12.300;2022-12-11T08:58:34;4.03;;;3.70;;
3726;SDS011;1879;45.876;12.300;2022-12-11T09:01:04;3.50;;;3.20;;
3726;SDS011;1879;45.876;12.300;2022-12-11T09:03:32;3.80;;;3.50;;
3726;SDS011;1879;45.876;12.300;2022-12-11T09:06:02;4.07;;;3.77;;
3726;SDS011;1879;45.876;12.300;2022-12-11T09:08:32;4.50;;;4.10;;
3726;SDS011;1879;45.876;12.300;2022-12-11T09:11:02;5.03;;;3.70;;
3726;SDS011;1879;45.876;12.300;2022-12-11T09:13:30;4.90;;;4.43;;
3726;SDS011;1879;45.876;12.300;2022-12-11T09:15:57;4.60;;;4.20;;
3726;SDS011;1879;45.876;12.300;2022-12-11T09:18:24;4.63;;;4.23;;
3726;SDS011;1879;45.876;12.300;2022-12-11T09:21:01;5.00;;;4.60;;
3726;SDS011;1879;45.876;12.300;2022-12-11T09:23:29;17.70;;;12.77;;
3726;SDS011;1879;45.876;12.300;2022-12-11T09:25:58;11.40;;;8.77;;
3726;SDS011;1879;45.876;12.300;2022-12-11T09:28:25;13.33;;;7.10;;
3726;SDS011;1879;45.876;12.300;2022-12-11T09:30:53;5.37;;;4.87;;
3726;SDS011;1879;45.876;12.300;2022-12-11T09:33:20;4.20;;;3.90;;
3726;SDS011;1879;45.876;12.300;2022-12-11T09:35:55;3.93;;;3.63;;
3726;SDS011;1879;45.876;12.300;2022-12-11T09:38:22;4.30;;;3.90;;
3726;SDS011;1879;45.876;12.300;2022-12-11T09:40:51;3.60;;;3.30;;
3726;SDS011;1879;45.876;12.300;2022-12-11T09:43:21;3.60;;;3.30;;
3726;SDS011;1879;45.876;12.300;2022-12-11T09:45:59;4.67;;;3.33;;
3726;SDS011;1879;45.876;12.300;2022-12-11T09:48:32;3.67;;;3.37;;
3726;SDS011;1879;45.876;12.300;2022-12-11T09:51:01;4.53;;;4.13;;
3726;SDS011;1879;45.876;12.300;2022-12-11T09:53:38;3.93;;;3.50;;
3726;SDS011;1879;45.876;12.300;2022-12-11T09:56:10;3.80;;;3.40;;
3726;SDS011;1879;45.876;12.300;2022-12-11T09:58:49;4.93;;;3.97;;
3726;SDS011;1879;45.876;12.300;2022-12-11T10:01:25;3.77;;;3.47;;
3726;SDS011;1879;45.876;12.300;2022-12-11T10:04:08;7.83;;;4.20;;
3726;SDS011;1879;45.876;12.300;2022-12-11T10:06:46;3.50;;;3.30;;
3726;SDS011;1879;45.876;12.300;2022-12-11T10:09:21;3.50;;;3.20;;
3726;SDS011;1879;45.876;12.300;2022-12-11T10:12:00;3.50;;;3.20;;
3726;SDS011;1879;45.876;12.300;2022-12-11T10:14:38;3.00;;;2.60;;
3726;SDS011;1879;45.876;12.300;2022-12-11T10:17:17;3.00;;;2.47;;
3726;SDS011;1879;45.876;12.300;2022-12-11T10:19:47;3.00;;;2.80;;
3726;SDS011;1879;45.876;12.300;2022-12-11T10:22:16;3.40;;;3.00;;
3726;SDS011;1879;45.876;12.300;2022-12-11T10:24:48;2.93;;;2.73;;
3726;SDS011;1879;45.876;12.300;2022-12-11T10:27:22;4.10;;;2.90;;
3726;SDS011;1879;45.876;12.300;2022-12-11T10:29:56;2.90;;;2.70;;
3726;SDS011;1879;45.876;12.300;2022-12-11T10:32:31;2.70;;;2.50;;
3726;SDS011;1879;45.876;12.300;2022-12-11T10:35:08;2.77;;;2.53;;
3726;SDS011;1879;45.876;12.300;2022-12-11T10:37:44;3.20;;;2.90;;
3726;SDS011;1879;45.876;12.300;2022-12-11T10:40:11;3.40;;;2.90;;
3726;SDS011;1879;45.876;12.300;2022-12-11T10:42:50;3.57;;;3.30;;
3726;SDS011;1879;45.876;12.300;2022-12-11T10:45:18;3.30;;;3.10;;
3726;SDS011;1879;45.876;12.300;2022-12-11T10:47:45;3.37;;;3.13;;
3726;SDS011;1879;45.876;12.300;2022-12-11T10:50:20;4.23;;;3.03;;
3726;SDS011;1879;45.876;12.300;2022-12-11T10:52:48;3.47;;;3.20;;
3726;SDS011;1879;45.876;12.300;2022-12-11T10:55:18;3.70;;;3.40;;
3726;SDS011;1879;45.876;12.300;2022-12-11T10:57:54;3.83;;;3.53;;
3726;SDS011;1879;45.876;12.300;2022-12-11T11:00:33;2.70;;;2.50;;
3726;SDS011;1879;45.876;12.300;2022-12-11T11:03:02;3.43;;;3.13;;
3726;SDS011;1879;45.876;12.300;2022-12-11T11:05:32;3.43;;;3.10;;
3726;SDS011;1879;45.876;12.300;2022-12-11T11:08:08;3.37;;;3.07;;
3726;SDS011;1879;45.876;12.300;2022-12-11T11:10:48;2.93;;;2.73;;
3726;SDS011;1879;45.876;12.300;2022-12-11T11:13:19;4.03;;;3.20;;
3726;SDS011;1879;45.876;12.300;2022-12-11T11:15:47;3.40;;;3.17;;
3726;SDS011;1879;45.876;12.300;2022-12-11T11:18:16;3.40;;;3.10;;
3726;SDS011;1879;45.876;12.300;2022-12-11T11:20:49;3.07;;;2.87;;
3726;SDS011;1879;45.876;12.300;2022-12-11T11:23:17;4.03;;;3.23;;
3726;SDS011;1879;45.876;12.300;2022-12-11T11:25:49;3.27;;;3.07;;
3726;SDS011;1879;45.876;12.300;2022-12-11T11:28:20;3.63;;;3.33;;
3726;SDS011;1879;45.876;12.300;2022-12-11T11:30:54;3.57;;;3.27;;
3726;SDS011;1879;45.876;12.300;2022-12-11T11:33:23;3.97;;;3.60;;
3726;SDS011;1879;45.876;12.300;2022-12-11T11:35:51;3.50;;;3.10;;
3726;SDS011;1879;45.876;12.300;2022-12-11T11:38:20;3.23;;;3.00;;
3726;SDS011;1879;45.876;12.300;2022-12-11T11:40:51;2.70;;;2.50;;
3726;SDS011;1879;45.876;12.300;2022-12-11T11:43:27;3.30;;;3.00;;
3726;SDS011;1879;45.876;12.300;2022-12-11T11:46:03;3.10;;;2.90;;
3726;SDS011;1879;45.876;12.300;2022-12-11T11:48:35;3.63;;;2.80;;
3726;SDS011;1879;45.876;12.300;2022-12-11T11:51:11;3.23;;;3.00;;
3726;SDS011;1879;45.876;12.300;2022-12-11T11:53:42;4.63;;;3.07;;
3726;SDS011;1879;45.876;12.300;2022-12-11T11:56:17;3.60;;;3.30;;
3726;SDS011;1879;45.876;12.300;2022-12-11T11:58:51;3.27;;;3.07;;
3726;SDS011;1879;45.876;12.300;2022-12-11T12:01:23;3.77;;;3.47;;
3726;SDS011;1879;45.876;12.300;2022-12-11T12:03:51;4.03;;;3.60;;
3726;SDS011;1879;45.876;12.300;2022-12-11T12:06:20;4.03;;;3.70;;
3726;SDS011;1879;45.876;12.300;2022-12-11T12:08:56;5.63;;;5.00;;
3726;SDS011;1879;45.876;12.300;2022-12-11T12:11:32;5.10;;;4.60;;
3726;SDS011;1879;45.876;12.300;2022-12-11T12:14:11;4.70;;;4.30;;
3726;SDS011;1879;45.876;12.300;2022-12-11T12:16:41;4.73;;;4.30;;
3726;SDS011;1879;45.876;12.300;2022-12-11T12:19:21;3.90;;;3.60;;
3726;SDS011;1879;45.876;12.300;2022-12-11T12:22:04;4.03;;;3.30;;
3726;SDS011;1879;45.876;12.300;2022-12-11T12:24:43;4.10;;;3.70;;
3726;SDS011;1879;45.876;12.300;2022-12-11T12:27:20;4.33;;;4.03;;
3726;SDS011;1879;45.876;12.300;2022-12-11T12:29:55;5.13;;;4.63;;
3726;SDS011;1879;45.876;12.300;2022-12-11T12:32:28;4.40;;;3.90;;
3726;SDS011;1879;45.876;12.300;2022-12-11T12:35:09;5.60;;;5.20;;
3726;SDS011;1879;45.876;12.300;2022-12-11T12:37:46;5.43;;;4.97;;
3726;SDS011;1879;45.876;12.300;2022-12-11T12:40:23;4.83;;;4.30;;
3726;SDS011;1879;45.876;12.300;2022-12-11T12:42:58;4.05;;;3.38;;
3726;SDS011;1879;45.876;12.300;2022-12-11T12:45:33;4.00;;;3.60;;
3726;SDS011;1879;45.876;12.300;2022-12-11T12:48:07;4.13;;;3.80;;
3726;SDS011;1879;45.876;12.300;2022-12-11T12:50:36;4.60;;;4.20;;
3726;SDS011;1879;45.876;12.300;2022-12-11T12:53:05;3.93;;;3.60;;
3726;SDS011;1879;45.876;12.300;2022-12-11T12:55:34;3.90;;;3.60;;
3726;SDS011;1879;45.876;12.300;2022-12-11T12:58:02;4.17;;;3.87;;
3726;SDS011;1879;45.876;12.300;2022-12-11T13:00:33;4.57;;;4.17;;
3726;SDS011;1879;45.876;12.300;2022-12-11T13:03:01;4.70;;;4.30;;
3726;SDS011;1879;45.876;12.300;2022-12-11T13:05:39;4.80;;;4.37;;
3726;SDS011;1879;45.876;12.300;2022-12-11T13:08:08;4.50;;;4.10;;
3726;SDS011;1879;45.876;12.300;2022-12-11T13:10:37;4.23;;;3.93;;
3726;SDS011;1879;45.876;12.300;2022-12-11T13:16:05;4.40;;;4.00;;
3726;SDS011;1879;45.876;12.300;2022-12-11T13:18:52;4.70;;;3.97;;
3726;SDS011;1879;45.876;12.300;2022-12-11T13:21:27;4.43;;;4.03;;
3726;SDS011;1879;45.876;12.300;2022-12-11T13:24:10;4.40;;;4.10;;
3726;SDS011;1879;45.876;12.300;2022-12-11T13:26:40;5.10;;;4.70;;
3726;SDS011;1879;45.876;12.300;2022-12-11T13:32:01;5.07;;;4.57;;
3726;SDS011;1879;45.876;12.300;2022-12-11T13:34:31;5.00;;;4.30;;
3726;SDS011;1879;45.876;12.300;2022-12-11T13:37:00;4.13;;;3.30;;
3726;SDS011;1879;45.876;12.300;2022-12-11T13:39:29;3.83;;;3.53;;
3726;SDS011;1879;45.876;12.300;2022-12-11T13:42:01;4.33;;;4.00;;
3726;SDS011;1879;45.876;12.300;2022-12-11T13:44:32;4.03;;;3.63;;
3726;SDS011;1879;45.876;12.300;2022-12-11T13:47:04;3.93;;;3.63;;
3726;SDS011;1879;45.876;12.300;2022-12-11T13:49:36;4.50;;;4.07;;
3726;SDS011;1879;45.876;12.300;2022-12-11T13:52:14;4.30;;;3.93;;
3726;SDS011;1879;45.876;12.300;2022-12-11T13:54:45;3.83;;;3.53;;
3726;SDS011;1879;45.876;12.300;2022-12-11T13:57:15;4.70;;;4.30;;
3726;SDS011;1879;45.876;12.300;2022-12-11T13:59:46;6.87;;;4.27;;
3726;SDS011;1879;45.876;12.300;2022-12-11T14:02:16;4.23;;;3.83;;
3726;SDS011;1879;45.876;12.300;2022-12-11T14:04:48;4.53;;;4.10;;
3726;SDS011;1879;45.876;12.300;2022-12-11T14:07:19;4.27;;;3.87;;
3726;SDS011;1879;45.876;12.300;2022-12-11T14:09:52;4.43;;;4.03;;
3726;SDS011;1879;45.876;12.300;2022-12-11T14:12:24;4.90;;;4.43;;
3726;SDS011;1879;45.876;12.300;2022-12-11T14:14:52;4.77;;;4.37;;
3726;SDS011;1879;45.876;12.300;2022-12-11T14:17:23;5.60;;;5.10;;
3726;SDS011;1879;45.876;12.300;2022-12-11T14:19:53;5.33;;;4.90;;
3726;SDS011;1879;45.876;12.300;2022-12-11T14:22:24;6.07;;;5.57;;
3726;SDS011;1879;45.876;12.300;2022-12-11T14:24:52;5.73;;;5.20;;
3726;SDS011;1879;45.876;12.300;2022-12-11T14:27:21;6.40;;;5.80;;
3726;SDS011;1879;45.876;12.300;2022-12-11T14:29:49;10.40;;;9.10;;
3726;SDS011;1879;45.876;12.300;2022-12-11T14:32:17;8.50;;;7.60;;
3726;SDS011;1879;45.876;12.300;2022-12-11T14:34:50;6.03;;;5.53;;
3726;SDS011;1879;45.876;12.300;2022-12-11T14:37:18;5.90;;;5.40;;
3726;SDS011;1879;45.876;12.300;2022-12-11T14:39:53;5.50;;;5.00;;
3726;SDS011;1879;45.876;12.300;2022-12-11T14:42:24;10.27;;;9.47;;
3726;SDS011;1879;45.876;12.300;2022-12-11T14:44:55;7.17;;;6.47;;
3726;SDS011;1879;45.876;12.300;2022-12-11T14:47:26;9.10;;;8.30;;
3726;SDS011;1879;45.876;12.300;2022-12-11T14:49:58;7.13;;;6.53;;
3726;SDS011;1879;45.876;12.300;2022-12-11T14:52:29;6.60;;;6.00;;
3726;SDS011;1879;45.876;12.300;2022-12-11T14:54:59;7.00;;;6.40;;
3726;SDS011;1879;45.876;12.300;2022-12-11T14:57:31;6.03;;;5.53;;
3726;SDS011;1879;45.876;12.300;2022-12-11T14:59:59;7.47;;;5.77;;
3726;SDS011;1879;45.876;12.300;2022-12-11T15:02:28;8.20;;;6.50;;
3726;SDS011;1879;45.876;12.300;2022-12-11T15:05:10;7.73;;;7.03;;
3726;SDS011;1879;45.876;12.300;2022-12-11T15:07:42;8.33;;;7.47;;
3726;SDS011;1879;45.876;12.300;2022-12-11T15:10:20;7.90;;;7.10;;
3726;SDS011;1879;45.876;12.300;2022-12-11T15:12:49;8.80;;;7.67;;
3726;SDS011;1879;45.876;12.300;2022-12-11T15:15:16;10.30;;;9.30;;
3726;SDS011;1879;45.876;12.300;2022-12-11T15:17:44;10.77;;;9.80;;
3726;SDS011;1879;45.876;12.300;2022-12-11T15:20:24;9.33;;;8.47;;
3726;SDS011;1879;45.876;12.300;2022-12-11T15:22:53;9.20;;;8.33;;
3726;SDS011;1879;45.876;12.300;2022-12-11T15:25:24;9.43;;;7.80;;